Date,TemperatureHighF,TemperatureAvgF,TemperatureLowF,DewpointHighF,DewpointAvgF,DewpointLowF,HumidityHigh,HumidityAvg,HumidityLow,PressureMaxIn,PressureMinIn,WindSpeedMaxMPH,WindSpeedAvgMPH,GustSpeedMaxMPH,PrecipitationSumIn
2012-7-19,96,81,70,81,74,68,96,80,56,30.03,29.85,11,4,0,3.64
2012-7-20,93,78,70,78,72,69,96,83,50,30.02,29.90,11,2,3,0.73
2012-7-21,89,79,70,74,70,68,93,75,51,30.06,29.98,5,2,7,0.00
2012-7-22,93,81,70,77,72,66,92,76,51,30.13,30.04,4,1,8,0.00
2012-7-23,93,82,72,78,74,71,96,78,55,30.17,30.05,7,3,11,0.00
2012-7-24,94,83,73,77,74,71,93,74,55,30.07,29.92,9,4,13,0.00
2012-7-25,93,80,73,78,73,70,92,80,58,29.97,29.91,8,3,11,0.00
2012-7-26,79,79,79,65,65,65,61,61,61,30.04,30.04,0,0,0,0.00
2012-7-30,91,84,79,77,75,72,85,73,57,29.90,29.86,4,1,5,0.04
2012-7-31,96,84,72,78,73,67,96,74,42,29.94,29.84,5,1,7,0.00
2012-8-1,99,81,71,78,72,68,95,76,38,29.92,29.81,11,2,19,0.00
2012-8-2,97,83,69,80,73,68,96,75,43,29.90,29.77,5,1,10,0.00
2012-8-3,90,81,73,79,75,71,96,83,66,29.90,29.83,7,2,10,0.22
2012-8-4,89,80,76,80,75,72,94,87,68,30.03,29.89,11,2,16,0.25
2012-8-5,91,80,72,80,75,70,93,84,58,30.12,30.01,9,2,14,0.77
2012-8-6,92,84,72,76,72,69,94,69,50,30.11,29.98,3,1,5,0.01
2012-8-7,91,76,68,76,69,58,96,81,35,30.02,29.97,3,0,6,0.00
2012-8-8,93,82,76,70,68,65,76,63,42,29.93,29.90,2,1,4,0.00
2012-8-9,89,79,70,75,70,66,91,76,56,29.93,29.75,12,2,14,0.01
2012-8-10,86,76,62,72,65,57,91,70,42,29.94,29.75,4,2,8,0.00
2012-8-11,84,70,57,62,56,50,93,65,32,30.03,29.93,5,1,14,0.00
2012-8-12,87,70,53,66,58,51,94,69,34,30.09,29.99,3,1,5,0.00
2012-8-13,77,68,62,72,64,57,94,87,76,30.02,29.87,11,2,13,1.48
2012-8-14,78,71,69,70,68,66,95,91,74,29.98,29.89,4,1,6,0.00
2012-8-16,89,83,74,77,73,70,87,72,59,30.03,29.87,5,2,8,0.00
2012-8-17,76,70,61,70,66,60,96,86,67,30.01,29.95,4,1,5,0.02
2012-8-18,82,68,56,65,60,54,97,77,39,30.01,29.89,4,1,7,0.00
2012-8-20,84,74,57,64,57,48,95,59,30,30.01,29.95,4,1,7,0.00
2012-8-21,84,69,54,67,59,53,96,74,40,30.08,30.00,4,0,6,0.00
2012-8-22,91,74,60,68,63,58,95,70,35,30.13,30.01,3,1,7,0.00
2012-8-23,93,77,63,70,64,59,90,68,36,30.10,30.00,4,2,6,0.00
2012-8-24,93,77,65,71,64,58,89,67,34,30.11,30.00,5,1,8,0.00
2012-8-25,89,76,66,74,67,63,94,77,49,30.10,30.03,6,1,8,0.00
2012-8-26,88,76,66,76,69,63,96,81,61,30.15,30.01,6,2,14,0.12
2012-8-27,91,79,70,77,70,66,91,77,51,30.09,29.95,5,2,7,0.00
2012-8-28,90,82,74,75,67,57,93,64,35,30.05,29.95,6,3,9,0.00
2012-8-29,91,82,63,69,65,60,90,57,39,30.02,29.91,8,4,12,0.00
2012-8-30,89,83,69,76,72,63,82,69,61,30.04,29.99,4,2,7,0.00
2012-8-31,81,81,80,73,72,72,77,76,76,30.01,30.01,3,2,6,0.00
2012-9-1,85,80,72,77,74,70,93,82,72,30.07,29.89,13,4,17,0.15
2012-9-2,80,74,71,75,71,69,96,92,81,29.92,29.80,10,4,15,0.44
2012-9-3,81,75,71,78,73,70,97,95,83,29.88,29.81,6,3,10,0.70
2012-9-4,89,79,72,78,74,71,97,86,64,29.92,29.84,4,0,7,0.00
2012-9-5,90,76,69,79,72,68,98,90,67,29.92,29.81,6,1,7,0.01
2012-9-6,88,74,67,76,70,66,98,88,63,29.99,29.90,4,1,7,0.01
2012-9-10,79,73,64,62,60,56,84,63,45,30.21,30.16,4,2,7,0.00
2012-9-11,86,75,63,64,61,56,94,65,42,30.23,30.15,4,1,7,0.00
2012-9-12,82,70,60,68,61,56,93,77,44,30.28,30.18,5,1,10,0.00
2012-9-13,80,68,64,68,62,60,89,82,61,30.23,30.19,2,1,3,0.00
2012-9-14,81,76,65,70,67,62,90,74,65,30.25,30.20,3,1,6,0.00
2012-9-15,74,68,62,65,62,60,91,82,73,30.27,30.17,3,2,6,0.00
2012-9-16,72,71,71,67,67,66,89,87,86,30.11,30.10,2,2,6,0.33
2012-9-17,72,69,66,70,67,65,97,94,86,29.96,29.76,3,0,5,0.40
2012-9-18,70,66,60,66,61,48,97,87,45,29.93,29.73,4,2,11,0.01
2012-9-19,74,68,62,51,45,41,64,45,32,30.21,30.11,5,2,9,0.00
2012-9-20,80,71,47,60,54,46,95,59,41,30.12,29.99,8,4,12,0.00
2012-9-21,80,72,57,66,62,55,91,70,57,30.06,29.85,7,4,10,0.00
2012-9-22,79,74,66,58,49,41,76,45,27,30.07,30.02,7,4,13,0.00
2012-9-23,46,46,46,39,38,38,75,75,74,30.21,30.21,0,0,1,0.00
2012-9-24,74,73,71,46,44,42,41,36,33,30.21,30.13,3,2,6,0.00
2012-9-25,84,77,56,68,64,51,82,65,59,30.08,29.97,10,6,13,0.00
2012-9-26,86,78,63,70,65,55,77,65,57,30.12,30.04,8,4,13,0.00
2012-9-27,82,72,64,69,66,62,96,82,60,30.17,30.07,4,1,7,0.30
2012-9-28,75,69,64,71,66,62,97,92,80,30.13,30.04,3,0,12,0.12
2012-9-29,77,65,55,61,56,53,95,75,49,30.09,29.98,5,1,8,0.00
2012-9-30,74,63,50,62,56,49,98,81,48,30.00,29.81,2,0,4,0.00
2012-10-1,62,60,57,61,58,56,96,94,88,29.82,29.51,8,3,12,1.08
2012-10-2,59,56,55,56,55,53,97,94,89,29.98,29.74,5,2,7,0.03
2012-10-3,77,62,49,58,53,48,98,77,38,30.17,29.98,7,2,12,0.00
2012-10-4,82,65,53,64,58,52,96,79,47,30.27,30.17,7,2,11,0.01
2012-10-5,81,65,46,65,58,44,97,81,51,30.19,29.96,7,2,12,0.06
2012-10-6,61,50,41,44,39,33,95,69,36,30.24,30.11,6,2,11,0.14
2012-10-7,59,50,44,41,38,35,83,66,42,30.26,30.18,6,1,8,0.00
2012-10-8,63,50,39,42,39,33,94,69,35,30.27,30.16,4,1,6,0.00
2012-10-9,68,51,35,48,42,34,96,75,42,30.20,30.03,6,2,10,0.00
2012-10-10,64,53,38,52,41,33,94,67,34,30.29,30.04,6,1,10,0.00
2012-10-11,61,41,34,41,36,32,95,83,42,30.33,30.28,5,1,8,0.00
2012-10-12,62,58,54,56,54,52,96,88,80,30.34,30.26,6,3,9,0.34
2012-10-13,72,62,57,66,60,56,96,92,80,30.25,30.21,4,2,8,0.00
2012-10-18,69,57,47,41,36,31,66,46,29,29.76,29.70,16,5,21,0.07
2012-10-19,58,52,45,44,40,36,74,63,53,29.85,29.67,13,5,19,0.00
2012-10-20,65,56,47,47,46,43,87,69,51,29.99,29.92,8,4,11,0.00
2012-10-21,71,70,69,55,54,53,58,57,57,30.06,30.05,1,0,5,0.00
2012-10-22,84,72,57,56,54,52,88,56,35,30.15,30.06,11,5,17,0.00
2012-10-23,82,71,54,56,52,49,84,54,33,30.12,30.01,12,4,16,0.00
2012-10-24,83,67,52,60,54,49,91,67,42,30.13,30.02,8,2,12,0.00
2012-10-25,82,67,54,62,56,51,93,70,43,30.05,29.95,11,3,16,0.00
2012-10-26,64,48,43,58,45,41,94,88,76,30.20,29.99,6,2,10,0.32
2012-10-27,56,47,41,43,39,35,90,74,52,30.19,30.09,5,1,9,0.00
2012-10-28,57,46,37,40,35,31,91,68,42,30.18,30.09,8,2,15,0.00
2012-10-29,56,44,33,36,30,26,88,61,33,30.20,30.00,7,3,13,0.00
2012-10-30,56,46,40,31,26,18,64,47,23,30.00,29.82,12,6,20,0.00
2012-10-31,57,47,32,34,25,21,86,45,28,30.00,29.89,7,3,14,0.00
2012-11-1,62,47,31,37,30,20,83,55,21,30.08,29.96,7,3,10,0.00
2012-11-2,66,54,42,43,36,31,76,54,28,30.08,29.91,4,2,7,0.00
2012-11-3,78,54,40,57,41,33,82,64,43,30.11,29.91,7,2,13,0.00
2012-11-4,56,44,35,40,36,30,92,73,43,30.22,30.11,3,1,7,0.00
2012-11-5,52,43,34,41,36,30,93,77,51,30.20,30.07,10,2,14,0.12
2012-11-6,50,44,39,44,41,37,95,88,75,30.09,29.96,4,1,7,0.09
2012-11-7,49,44,38,44,41,37,96,91,78,30.19,29.94,4,1,8,0.07
2012-11-8,58,44,31,46,38,30,97,83,53,30.31,30.19,4,0,6,0.00
2012-11-9,69,45,34,46,38,33,95,79,39,30.28,30.15,8,3,12,0.01
2012-11-10,75,61,44,53,45,39,83,58,37,30.26,30.14,8,4,14,0.00
2012-11-11,52,52,52,43,43,43,71,71,71,30.21,30.19,1,1,2,0.00
2012-11-12,51,40,28,49,32,25,94,75,46,30.49,30.15,8,3,14,0.75
2012-11-13,50,37,25,34,27,23,95,70,40,30.57,30.47,4,2,8,0.00
2012-11-14,52,39,29,36,30,25,89,70,48,30.50,30.36,8,3,11,0.00
2012-11-15,31,29,26,28,27,24,92,89,83,30.36,30.34,1,0,2,0.00
2012-11-16,57,48,41,34,31,29,66,53,36,30.45,30.40,3,2,8,0.00
2012-11-17,60,50,34,39,36,31,89,61,41,30.52,30.42,4,2,7,0.00
2012-11-19,58,42,33,44,37,30,92,82,60,30.37,30.35,1,0,3,0.00
2012-11-20,59,54,50,45,44,42,76,69,58,30.18,30.17,5,2,6,0.00
2012-11-21,65,58,42,48,46,39,93,66,50,30.27,30.21,4,1,7,0.00
2012-11-22,67,48,33,45,39,31,96,75,44,30.25,30.12,8,2,9,0.00
2012-11-23,56,51,32,40,35,23,70,54,41,30.32,30.14,8,5,13,0.01
2012-11-24,40,35,31,23,22,21,70,60,49,30.38,30.26,6,2,9,0.00
2012-11-26,61,51,44,47,41,33,93,72,42,30.16,30.08,7,2,9,0.20
2012-11-27,41,37,32,35,32,29,90,84,74,30.40,30.34,4,1,6,0.01
2012-11-28,50,39,23,37,30,22,95,75,50,30.53,30.44,3,1,5,0.00
2012-11-29,28,28,27,25,25,25,91,90,90,30.42,30.41,1,1,2,0.00
2012-11-30,62,55,46,46,42,39,77,63,49,30.31,30.20,10,4,13,0.00
2012-12-1,70,57,46,51,46,40,83,68,45,30.29,30.16,8,3,14,0.00
2012-12-2,67,63,58,60,56,50,85,78,73,30.19,30.13,14,8,21,0.00
2012-12-3,76,66,59,61,55,49,84,68,45,30.20,30.09,14,6,18,0.00
2012-12-4,70,60,49,63,56,44,94,85,69,30.27,30.06,10,5,15,0.39
2012-12-5,61,50,41,47,40,34,93,72,39,30.36,30.17,8,3,11,0.00
2012-12-6,58,48,39,50,43,34,94,85,71,30.17,30.00,5,1,7,0.08
2012-12-7,60,57,52,58,54,50,95,92,87,30.00,29.88,9,3,14,0.06
2012-12-8,62,58,53,58,56,51,95,93,87,29.99,29.88,8,3,9,0.32
2012-12-9,64,59,53,61,57,51,95,92,89,29.97,29.76,11,4,15,1.10
2012-12-10,58,40,32,57,36,26,95,88,80,30.10,29.74,8,3,12,0.15
2012-12-11,43,33,26,29,26,22,93,75,53,30.32,30.09,4,1,6,0.00
2012-12-12,47,33,21,33,26,20,95,78,48,30.43,30.32,5,1,10,0.01
2012-12-13,28,25,23,25,23,21,93,91,86,30.42,30.38,2,0,3,0.00